sensor_id;sensor_type;location;lat;lon;timestamp;P1;durP1;ratioP1;P2;durP2;ratioP2
1306;SDS011;646;48.696;9.114;2022-09-09T00:02:15;1.83;;;1.73;;
1306;SDS011;646;48.696;9.114;2022-09-09T00:04:43;2.13;;;1.80;;
1306;SDS011;646;48.696;9.114;2022-09-09T00:07:38;2.60;;;1.70;;
1306;SDS011;646;48.696;9.114;2022-09-09T00:10:32;2.30;;;2.03;;
1306;SDS011;646;48.696;9.114;2022-09-09T00:16:04;2.97;;;1.50;;
1306;SDS011;646;48.696;9.114;2022-09-09T00:21:43;1.70;;;1.53;;
1306;SDS011;646;48.696;9.114;2022-09-09T00:24:27;1.60;;;1.50;;
1306;SDS011;646;48.696;9.114;2022-09-09T00:27:13;2.77;;;2.10;;
1306;SDS011;646;48.696;9.114;2022-09-09T00:32:46;1.90;;;1.80;;
1306;SDS011;646;48.696;9.114;2022-09-09T00:35:22;2.27;;;2.00;;
1306;SDS011;646;48.696;9.114;2022-09-09T00:38:15;3.23;;;1.60;;
1306;SDS011;646;48.696;9.114;2022-09-09T00:43:29;3.03;;;1.50;;
1306;SDS011;646;48.696;9.114;2022-09-09T00:46:21;2.43;;;2.10;;
1306;SDS011;646;48.696;9.114;2022-09-09T00:49:05;6.23;;;2.60;;
1306;SDS011;646;48.696;9.114;2022-09-09T00:54:28;1.73;;;1.63;;
1306;SDS011;646;48.696;9.114;2022-09-09T00:59:52;1.87;;;1.77;;
1306;SDS011;646;48.696;9.114;2022-09-09T01:03:18;1.80;;;1.37;;
1306;SDS011;646;48.696;9.114;2022-09-09T01:11:20;1.90;;;1.80;;
1306;SDS011;646;48.696;9.114;2022-09-09T01:14:13;1.67;;;1.57;;
1306;SDS011;646;48.696;9.114;2022-09-09T01:16:50;1.80;;;1.70;;
1306;SDS011;646;48.696;9.114;2022-09-09T01:19:23;1.77;;;1.67;;
1306;SDS011;646;48.696;9.114;2022-09-09T01:22:07;1.63;;;1.53;;
1306;SDS011;646;48.696;9.114;2022-09-09T01:27:09;1.83;;;1.70;;
1306;SDS011;646;48.696;9.114;2022-09-09T01:29:36;2.07;;;1.87;;
1306;SDS011;646;48.696;9.114;2022-09-09T01:32:35;1.47;;;1.37;;
1306;SDS011;646;48.696;9.114;2022-09-09T01:35:03;1.70;;;1.60;;
1306;SDS011;646;48.696;9.114;2022-09-09T01:37:29;2.03;;;1.83;;
1306;SDS011;646;48.696;9.114;2022-09-09T01:39:55;2.63;;;1.63;;
1306;SDS011;646;48.696;9.114;2022-09-09T01:42:20;1.70;;;1.60;;
1306;SDS011;646;48.696;9.114;2022-09-09T01:44:46;1.83;;;1.73;;
1306;SDS011;646;48.696;9.114;2022-09-09T01:47:11;2.60;;;2.00;;
1306;SDS011;646;48.696;9.114;2022-09-09T01:49:37;3.80;;;1.90;;
1306;SDS011;646;48.696;9.114;2022-09-09T01:52:02;2.27;;;1.80;;
1306;SDS011;646;48.696;9.114;2022-09-09T01:54:29;2.27;;;2.07;;
1306;SDS011;646;48.696;9.114;2022-09-09T02:05:36;2.40;;;1.70;;
1306;SDS011;646;48.696;9.114;2022-09-09T02:10:47;1.60;;;1.50;;
1306;SDS011;646;48.696;9.114;2022-09-09T02:13:23;1.53;;;1.37;;
1306;SDS011;646;48.696;9.114;2022-09-09T02:18:37;3.33;;;1.60;;
1306;SDS011;646;48.696;9.114;2022-09-09T02:21:09;1.50;;;1.40;;
1306;SDS011;646;48.696;9.114;2022-09-09T02:23:36;2.20;;;1.70;;
1306;SDS011;646;48.696;9.114;2022-09-09T02:26:04;3.03;;;2.20;;
1306;SDS011;646;48.696;9.114;2022-09-09T02:28:32;2.07;;;1.97;;
1306;SDS011;646;48.696;9.114;2022-09-09T02:31:00;2.37;;;2.17;;
1306;SDS011;646;48.696;9.114;2022-09-09T02:33:28;2.70;;;1.77;;
1306;SDS011;646;48.696;9.114;2022-09-09T02:35:59;2.37;;;2.13;;
1306;SDS011;646;48.696;9.114;2022-09-09T02:38:28;1.50;;;1.40;;
1306;SDS011;646;48.696;9.114;2022-09-09T02:40:58;2.17;;;1.55;;
1306;SDS011;646;48.696;9.114;2022-09-09T02:43:24;1.83;;;1.73;;
1306;SDS011;646;48.696;9.114;2022-09-09T02:48:48;1.70;;;1.60;;
1306;SDS011;646;48.696;9.114;2022-09-09T02:51:24;1.83;;;1.73;;
1306;SDS011;646;48.696;9.114;2022-09-09T02:56:55;2.00;;;1.80;;
1306;SDS011;646;48.696;9.114;2022-09-09T02:59:26;1.55;;;1.38;;
1306;SDS011;646;48.696;9.114;2022-09-09T03:01:52;1.90;;;1.80;;
1306;SDS011;646;48.696;9.114;2022-09-09T03:04:18;2.27;;;1.70;;
1306;SDS011;646;48.696;9.114;2022-09-09T03:06:43;1.80;;;1.70;;
1306;SDS011;646;48.696;9.114;2022-09-09T03:09:09;1.80;;;1.70;;
1306;SDS011;646;48.696;9.114;2022-09-09T03:11:35;1.70;;;1.20;;
1306;SDS011;646;48.696;9.114;2022-09-09T03:14:01;1.80;;;1.70;;
1306;SDS011;646;48.696;9.114;2022-09-09T03:16:27;3.37;;;1.60;;
1306;SDS011;646;48.696;9.114;2022-09-09T03:18:53;2.23;;;1.73;;
1306;SDS011;646;48.696;9.114;2022-09-09T03:21:19;2.53;;;2.20;;
1306;SDS011;646;48.696;9.114;2022-09-09T03:23:44;3.57;;;1.77;;
1306;SDS011;646;48.696;9.114;2022-09-09T03:26:10;1.67;;;1.50;;
1306;SDS011;646;48.696;9.114;2022-09-09T03:28:36;1.80;;;1.70;;
1306;SDS011;646;48.696;9.114;2022-09-09T03:31:03;2.80;;;2.60;;
1306;SDS011;646;48.696;9.114;2022-09-09T03:33:29;2.10;;;1.90;;
1306;SDS011;646;48.696;9.114;2022-09-09T03:35:56;1.87;;;1.77;;
1306;SDS011;646;48.696;9.114;2022-09-09T03:38:22;2.20;;;1.77;;
1306;SDS011;646;48.696;9.114;2022-09-09T03:40:52;2.03;;;1.80;;
1306;SDS011;646;48.696;9.114;2022-09-09T03:43:25;1.60;;;1.50;;
1306;SDS011;646;48.696;9.114;2022-09-09T03:45:52;2.00;;;1.80;;
1306;SDS011;646;48.696;9.114;2022-09-09T03:48:18;2.00;;;1.60;;
1306;SDS011;646;48.696;9.114;2022-09-09T03:50:45;1.53;;;1.43;;
1306;SDS011;646;48.696;9.114;2022-09-09T03:53:15;2.17;;;1.97;;
1306;SDS011;646;48.696;9.114;2022-09-09T03:55:45;2.73;;;1.73;;
1306;SDS011;646;48.696;9.114;2022-09-09T03:58:12;1.70;;;1.50;;
1306;SDS011;646;48.696;9.114;2022-09-09T04:00:38;1.80;;;1.70;;
1306;SDS011;646;48.696;9.114;2022-09-09T04:03:07;2.03;;;1.53;;
1306;SDS011;646;48.696;9.114;2022-09-09T04:05:34;1.60;;;1.50;;
1306;SDS011;646;48.696;9.114;2022-09-09T04:07:59;1.93;;;1.83;;
1306;SDS011;646;48.696;9.114;2022-09-09T04:10:25;2.23;;;1.50;;
1306;SDS011;646;48.696;9.114;2022-09-09T04:12:51;1.63;;;1.53;;
1306;SDS011;646;48.696;9.114;2022-09-09T04:15:17;1.90;;;1.57;;
1306;SDS011;646;48.696;9.114;2022-09-09T04:17:43;1.83;;;1.60;;
1306;SDS011;646;48.696;9.114;2022-09-09T04:20:08;1.97;;;1.77;;
1306;SDS011;646;48.696;9.114;2022-09-09T04:22:37;1.77;;;1.67;;
1306;SDS011;646;48.696;9.114;2022-09-09T04:25:04;2.20;;;2.00;;
1306;SDS011;646;48.696;9.114;2022-09-09T04:27:31;2.43;;;1.50;;
1306;SDS011;646;48.696;9.114;2022-09-09T04:29:57;1.83;;;1.73;;
1306;SDS011;646;48.696;9.114;2022-09-09T04:32:22;1.90;;;1.80;;
1306;SDS011;646;48.696;9.114;2022-09-09T04:34:48;3.83;;;2.20;;
1306;SDS011;646;48.696;9.114;2022-09-09T04:37:14;2.90;;;1.80;;
1306;SDS011;646;48.696;9.114;2022-09-09T04:39:39;2.00;;;1.90;;
1306;SDS011;646;48.696;9.114;2022-09-09T04:42:05;2.10;;;1.90;;
1306;SDS011;646;48.696;9.114;2022-09-09T04:44:30;2.03;;;1.90;;
1306;SDS011;646;48.696;9.114;2022-09-09T04:46:56;2.10;;;1.83;;
1306;SDS011;646;48.696;9.114;2022-09-09T04:49:21;3.10;;;2.30;;
1306;SDS011;646;48.696;9.114;2022-09-09T04:51:48;3.20;;;1.80;;
1306;SDS011;646;48.696;9.114;2022-09-09T04:54:14;2.30;;;2.10;;
1306;SDS011;646;48.696;9.114;2022-09-09T04:56:40;2.93;;;2.20;;
1306;SDS011;646;48.696;9.114;2022-09-09T04:59:07;3.30;;;2.10;;
1306;SDS011;646;48.696;9.114;2022-09-09T05:01:32;2.20;;;1.97;;
1306;SDS011;646;48.696;9.114;2022-09-09T05:03:59;3.20;;;2.17;;
1306;SDS011;646;48.696;9.114;2022-09-09T05:06:24;2.00;;;1.90;;
1306;SDS011;646;48.696;9.114;2022-09-09T05:08:51;2.37;;;1.97;;
1306;SDS011;646;48.696;9.114;2022-09-09T05:11:23;3.70;;;2.27;;
1306;SDS011;646;48.696;9.114;2022-09-09T05:13:51;2.20;;;2.00;;
1306;SDS011;646;48.696;9.114;2022-09-09T05:16:30;3.67;;;2.30;;
1306;SDS011;646;48.696;9.114;2022-09-09T05:18:56;8.30;;;2.53;;
1306;SDS011;646;48.696;9.114;2022-09-09T05:21:23;2.20;;;2.00;;
1306;SDS011;646;48.696;9.114;2022-09-09T05:23:51;2.10;;;1.90;;
1306;SDS011;646;48.696;9.114;2022-09-09T05:26:18;1.90;;;1.80;;
1306;SDS011;646;48.696;9.114;2022-09-09T05:28:45;3.27;;;1.47;;
1306;SDS011;646;48.696;9.114;2022-09-09T05:31:12;3.57;;;1.70;;
1306;SDS011;646;48.696;9.114;2022-09-09T05:33:39;2.53;;;1.70;;
1306;SDS011;646;48.696;9.114;2022-09-09T05:36:26;1.90;;;1.80;;
1306;SDS011;646;48.696;9.114;2022-09-09T05:38:51;2.77;;;2.07;;
1306;SDS011;646;48.696;9.114;2022-09-09T05:41:18;1.90;;;1.70;;
1306;SDS011;646;48.696;9.114;2022-09-09T05:43:45;2.83;;;2.07;;
1306;SDS011;646;48.696;9.114;2022-09-09T05:46:15;2.00;;;1.60;;
1306;SDS011;646;48.696;9.114;2022-09-09T05:48:43;2.40;;;2.20;;
1306;SDS011;646;48.696;9.114;2022-09-09T05:51:16;2.13;;;2.00;;
1306;SDS011;646;48.696;9.114;2022-09-09T05:53:43;1.90;;;1.80;;
1306;SDS011;646;48.696;9.114;2022-09-09T05:56:11;2.90;;;2.40;;
1306;SDS011;646;48.696;9.114;2022-09-09T05:58:41;2.33;;;1.93;;
1306;SDS011;646;48.696;9.114;2022-09-09T06:01:11;2.67;;;2.40;;
1306;SDS011;646;48.696;9.114;2022-09-09T06:03:47;2.40;;;2.20;;
1306;SDS011;646;48.696;9.114;2022-09-09T06:06:15;2.27;;;2.07;;
1306;SDS011;646;48.696;9.114;2022-09-09T06:08:43;2.00;;;1.90;;
1306;SDS011;646;48.696;9.114;2022-09-09T06:13:40;3.00;;;2.57;;
1306;SDS011;646;48.696;9.114;2022-09-09T06:16:10;2.03;;;1.70;;
1306;SDS011;646;48.696;9.114;2022-09-09T06:18:38;2.03;;;1.83;;
1306;SDS011;646;48.696;9.114;2022-09-09T06:21:04;2.40;;;2.20;;
1306;SDS011;646;48.696;9.114;2022-09-09T06:23:31;2.30;;;2.10;;
1306;SDS011;646;48.696;9.114;2022-09-09T06:28:31;1.93;;;1.83;;
1306;SDS011;646;48.696;9.114;2022-09-09T06:31:01;2.47;;;1.90;;
1306;SDS011;646;48.696;9.114;2022-09-09T06:33:30;2.17;;;1.97;;
1306;SDS011;646;48.696;9.114;2022-09-09T06:35:59;2.13;;;2.00;;
1306;SDS011;646;48.696;9.114;2022-09-09T06:38:25;2.63;;;2.30;;
1306;SDS011;646;48.696;9.114;2022-09-09T06:40:52;2.30;;;2.20;;
1306;SDS011;646;48.696;9.114;2022-09-09T06:43:19;3.17;;;2.10;;
1306;SDS011;646;48.696;9.114;2022-09-09T06:45:52;2.23;;;2.07;;
1306;SDS011;646;48.696;9.114;2022-09-09T06:48:21;2.10;;;1.90;;
1306;SDS011;646;48.696;9.114;2022-09-09T06:50:47;2.10;;;2.00;;
1306;SDS011;646;48.696;9.114;2022-09-09T06:53:16;2.40;;;2.20;;
1306;SDS011;646;48.696;9.114;2022-09-09T06:55:44;1.93;;;1.70;;
1306;SDS011;646;48.696;9.114;2022-09-09T06:58:10;2.63;;;2.20;;
1306;SDS011;646;48.696;9.114;2022-09-09T07:00:36;2.37;;;2.27;;
1306;SDS011;646;48.696;9.114;2022-09-09T07:03:04;2.03;;;1.50;;
1306;SDS011;646;48.696;9.114;2022-09-09T07:05:31;2.90;;;2.40;;
1306;SDS011;646;48.696;9.114;2022-09-09T07:07:56;2.00;;;1.90;;
1306;SDS011;646;48.696;9.114;2022-09-09T07:10:22;2.00;;;1.90;;
1306;SDS011;646;48.696;9.114;2022-09-09T07:12:51;2.73;;;1.90;;
1306;SDS011;646;48.696;9.114;2022-09-09T07:15:17;2.77;;;2.50;;
1306;SDS011;646;48.696;9.114;2022-09-09T07:17:47;2.90;;;2.07;;
1306;SDS011;646;48.696;9.114;2022-09-09T07:20:13;4.93;;;2.20;;
1306;SDS011;646;48.696;9.114;2022-09-09T07:22:40;1.83;;;1.70;;
1306;SDS011;646;48.696;9.114;2022-09-09T07:25:06;2.30;;;1.90;;
1306;SDS011;646;48.696;9.114;2022-09-09T07:27:32;1.83;;;1.73;;
1306;SDS011;646;48.696;9.114;2022-09-09T07:29:58;1.97;;;1.87;;
1306;SDS011;646;48.696;9.114;2022-09-09T07:32:24;1.90;;;1.80;;
1306;SDS011;646;48.696;9.114;2022-09-09T07:34:50;2.03;;;1.50;;
1306;SDS011;646;48.696;9.114;2022-09-09T07:37:16;2.87;;;2.23;;
1306;SDS011;646;48.696;9.114;2022-09-09T07:39:42;2.43;;;1.57;;
1306;SDS011;646;48.696;9.114;2022-09-09T07:42:08;1.77;;;1.67;;
1306;SDS011;646;48.696;9.114;2022-09-09T07:44:36;2.10;;;2.00;;
1306;SDS011;646;48.696;9.114;2022-09-09T07:47:04;1.90;;;1.70;;
1306;SDS011;646;48.696;9.114;2022-09-09T07:49:30;6.70;;;1.60;;
1306;SDS011;646;48.696;9.114;2022-09-09T07:51:56;3.07;;;1.67;;
1306;SDS011;646;48.696;9.114;2022-09-09T07:54:22;2.17;;;1.97;;
1306;SDS011;646;48.696;9.114;2022-09-09T07:56:48;2.10;;;2.00;;
1306;SDS011;646;48.696;9.114;2022-09-09T07:59:14;1.93;;;1.83;;
1306;SDS011;646;48.696;9.114;2022-09-09T08:01:41;2.10;;;2.00;;
1306;SDS011;646;48.696;9.114;2022-09-09T08:04:13;2.63;;;1.87;;
1306;SDS011;646;48.696;9.114;2022-09-09T08:06:41;2.23;;;1.70;;
1306;SDS011;646;48.696;9.114;2022-09-09T08:09:09;1.67;;;1.57;;
1306;SDS011;646;48.696;9.114;2022-09-09T08:11:35;3.80;;;1.90;;
1306;SDS011;646;48.696;9.114;2022-09-09T08:14:02;1.77;;;1.67;;
1306;SDS011;646;48.696;9.114;2022-09-09T08:16:30;2.20;;;1.83;;
1306;SDS011;646;48.696;9.114;2022-09-09T08:18:57;4.23;;;2.07;;
1306;SDS011;646;48.696;9.114;2022-09-09T08:21:24;2.33;;;2.23;;
1306;SDS011;646;48.696;9.114;2022-09-09T08:23:55;1.90;;;1.63;;
1306;SDS011;646;48.696;9.114;2022-09-09T08:26:22;2.53;;;1.80;;
1306;SDS011;646;48.696;9.114;2022-09-09T08:28:50;1.77;;;1.63;;
1306;SDS011;646;48.696;9.114;2022-09-09T08:31:24;1.87;;;1.60;;
1306;SDS011;646;48.696;9.114;2022-09-09T08:33:53;3.00;;;1.97;;
1306;SDS011;646;48.696;9.114;2022-09-09T08:36:20;5.07;;;1.50;;
1306;SDS011;646;48.696;9.114;2022-09-09T08:38:48;1.57;;;1.47;;
1306;SDS011;646;48.696;9.114;2022-09-09T08:43:46;3.37;;;2.00;;
1306;SDS011;646;48.696;9.114;2022-09-09T08:52:28;2.30;;;1.40;;
1306;SDS011;646;48.696;9.114;2022-09-09T08:54:56;1.70;;;1.57;;
1306;SDS011;646;48.696;9.114;2022-09-09T08:57:28;2.70;;;1.73;;
1306;SDS011;646;48.696;9.114;2022-09-09T08:59:57;4.77;;;1.47;;
1306;SDS011;646;48.696;9.114;2022-09-09T09:05:26;2.43;;;1.50;;
1306;SDS011;646;48.696;9.114;2022-09-09T09:10:50;2.30;;;1.00;;
1306;SDS011;646;48.696;9.114;2022-09-09T09:13:19;1.53;;;1.30;;
1306;SDS011;646;48.696;9.114;2022-09-09T09:15:58;2.17;;;1.50;;
1306;SDS011;646;48.696;9.114;2022-09-09T09:18:29;2.50;;;1.40;;
1306;SDS011;646;48.696;9.114;2022-09-09T09:20:58;1.60;;;1.50;;
1306;SDS011;646;48.696;9.114;2022-09-09T09:23:43;3.87;;;1.67;;
1306;SDS011;646;48.696;9.114;2022-09-09T09:26:18;3.43;;;1.43;;
1306;SDS011;646;48.696;9.114;2022-09-09T09:28:47;1.80;;;1.20;;
1306;SDS011;646;48.696;9.114;2022-09-09T09:31:12;2.83;;;1.47;;
1306;SDS011;646;48.696;9.114;2022-09-09T09:36:17;2.00;;;1.60;;
1306;SDS011;646;48.696;9.114;2022-09-09T09:38:54;1.40;;;1.23;;
1306;SDS011;646;48.696;9.114;2022-09-09T09:43:57;1.63;;;1.50;;
1306;SDS011;646;48.696;9.114;2022-09-09T09:46:24;0.90;;;0.90;;
1306;SDS011;646;48.696;9.114;2022-09-09T09:49:09;1.40;;;1.30;;
1306;SDS011;646;48.696;9.114;2022-09-09T09:51:35;1.37;;;1.37;;
1306;SDS011;646;48.696;9.114;2022-09-09T09:56:40;2.10;;;1.60;;
1306;SDS011;646;48.696;9.114;2022-09-09T09:59:19;1.77;;;1.20;;
1306;SDS011;646;48.696;9.114;2022-09-09T10:01:45;1.10;;;1.00;;
1306;SDS011;646;48.696;9.114;2022-09-09T10:06:42;1.47;;;1.13;;
1306;SDS011;646;48.696;9.114;2022-09-09T10:17:21;1.47;;;1.37;;
1306;SDS011;646;48.696;9.114;2022-09-09T10:20:27;1.10;;;1.03;;
1306;SDS011;646;48.696;9.114;2022-09-09T10:26:12;2.20;;;1.27;;
1306;SDS011;646;48.696;9.114;2022-09-09T10:31:41;1.20;;;1.07;;
1306;SDS011;646;48.696;9.114;2022-09-09T10:36:49;1.57;;;1.20;;
1306;SDS011;646;48.696;9.114;2022-09-09T10:42:06;1.27;;;1.00;;
1306;SDS011;646;48.696;9.114;2022-09-09T10:44:56;1.60;;;1.33;;
1306;SDS011;646;48.696;9.114;2022-09-09T10:53:20;1.80;;;1.50;;
1306;SDS011;646;48.696;9.114;2022-09-09T10:55:59;4.07;;;1.67;;
1306;SDS011;646;48.696;9.114;2022-09-09T11:01:33;1.67;;;1.57;;
1306;SDS011;646;48.696;9.114;2022-09-09T11:04:16;2.40;;;2.10;;
1306;SDS011;646;48.696;9.114;2022-09-09T11:06:53;2.23;;;1.60;;
1306;SDS011;646;48.696;9.114;2022-09-09T11:09:27;2.63;;;1.80;;
1306;SDS011;646;48.696;9.114;2022-09-09T11:11:56;4.47;;;1.50;;
1306;SDS011;646;48.696;9.114;2022-09-09T11:14:28;1.90;;;1.50;;
1306;SDS011;646;48.696;9.114;2022-09-09T11:18:04;1.90;;;1.50;;
1306;SDS011;646;48.696;9.114;2022-09-09T11:20:12;1.63;;;1.33;;
1306;SDS011;646;48.696;9.114;2022-09-09T11:22:58;2.97;;;1.80;;
1306;SDS011;646;48.696;9.114;2022-09-09T11:25:36;2.00;;;1.47;;
1306;SDS011;646;48.696;9.114;2022-09-09T11:28:14;1.70;;;1.47;;
1306;SDS011;646;48.696;9.114;2022-09-09T11:31:11;1.27;;;1.00;;
1306;SDS011;646;48.696;9.114;2022-09-09T11:33:59;1.10;;;1.00;;
1306;SDS011;646;48.696;9.114;2022-09-09T11:42:12;0.80;;;0.80;;
1306;SDS011;646;48.696;9.114;2022-09-09T11:44:45;0.97;;;0.97;;
1306;SDS011;646;48.696;9.114;2022-09-09T11:49:51;1.10;;;1.10;;
1306;SDS011;646;48.696;9.114;2022-09-09T11:52:25;0.67;;;0.60;;
1306;SDS011;646;48.696;9.114;2022-09-09T11:55:30;1.13;;;0.73;;
1306;SDS011;646;48.696;9.114;2022-09-09T11:58:04;0.93;;;0.53;;
1306;SDS011;646;48.696;9.114;2022-09-09T12:00:37;3.23;;;0.70;;
1306;SDS011;646;48.696;9.114;2022-09-09T12:03:10;1.07;;;0.63;;
1306;SDS011;646;48.696;9.114;2022-09-09T12:06:27;0.70;;;0.70;;
1306;SDS011;646;48.696;9.114;2022-09-09T12:09:09;0.83;;;0.77;;
1306;SDS011;646;48.696;9.114;2022-09-09T12:11:42;0.70;;;0.70;;
1306;SDS011;646;48.696;9.114;2022-09-09T12:14:18;0.70;;;0.70;;
1306;SDS011;646;48.696;9.114;2022-09-09T12:16:45;0.60;;;0.60;;
1306;SDS011;646;48.696;9.114;2022-09-09T12:19:19;0.57;;;0.40;;
1306;SDS011;646;48.696;9.114;2022-09-09T12:24:17;0.80;;;0.60;;
1306;SDS011;646;48.696;9.114;2022-09-09T12:26:54;1.10;;;0.80;;
1306;SDS011;646;48.696;9.114;2022-09-09T12:32:04;0.60;;;0.50;;
1306;SDS011;646;48.696;9.114;2022-09-09T12:37:06;0.63;;;0.60;;
1306;SDS011;646;48.696;9.114;2022-09-09T12:39:38;1.57;;;1.27;;
1306;SDS011;646;48.696;9.114;2022-09-09T12:42:15;3.13;;;0.67;;
1306;SDS011;646;48.696;9.114;2022-09-09T12:44:52;2.70;;;0.90;;
1306;SDS011;646;48.696;9.114;2022-09-09T12:47:45;0.80;;;0.80;;
1306;SDS011;646;48.696;9.114;2022-09-09T12:50:30;1.23;;;1.00;;
1306;SDS011;646;48.696;9.114;2022-09-09T12:53:06;1.57;;;1.20;;
1306;SDS011;646;48.696;9.114;2022-09-09T12:55:35;1.47;;;0.80;;
1306;SDS011;646;48.696;9.114;2022-09-09T12:58:02;2.43;;;1.13;;
1306;SDS011;646;48.696;9.114;2022-09-09T13:00:31;1.00;;;1.00;;
1306;SDS011;646;48.696;9.114;2022-09-09T13:03:01;1.03;;;0.93;;
1306;SDS011;646;48.696;9.114;2022-09-09T13:05:33;1.50;;;0.93;;
1306;SDS011;646;48.696;9.114;2022-09-09T13:08:02;1.30;;;1.00;;
1306;SDS011;646;48.696;9.114;2022-09-09T13:10:29;2.80;;;0.90;;
1306;SDS011;646;48.696;9.114;2022-09-09T13:13:00;2.77;;;0.83;;
1306;SDS011;646;48.696;9.114;2022-09-09T13:15:27;1.47;;;1.00;;
1306;SDS011;646;48.696;9.114;2022-09-09T13:17:55;1.50;;;0.87;;
1306;SDS011;646;48.696;9.114;2022-09-09T13:20:22;1.20;;;1.10;;
1306;SDS011;646;48.696;9.114;2022-09-09T13:22:50;1.80;;;0.80;;
1306;SDS011;646;48.696;9.114;2022-09-09T13:25:19;0.80;;;0.80;;
1306;SDS011;646;48.696;9.114;2022-09-09T13:28:00;1.90;;;0.90;;
1306;SDS011;646;48.696;9.114;2022-09-09T13:35:48;1.27;;;0.90;;
1306;SDS011;646;48.696;9.114;2022-09-09T13:38:19;0.83;;;0.60;;
1306;SDS011;646;48.696;9.114;2022-09-09T13:40:59;1.50;;;0.83;;
1306;SDS011;646;48.696;9.114;2022-09-09T13:43:28;1.80;;;1.07;;
1306;SDS011;646;48.696;9.114;2022-09-09T13:46:03;1.03;;;0.87;;
1306;SDS011;646;48.696;9.114;2022-09-09T13:48:31;1.57;;;0.80;;
1306;SDS011;646;48.696;9.114;2022-09-09T13:51:01;1.50;;;0.70;;
1306;SDS011;646;48.696;9.114;2022-09-09T13:53:30;0.73;;;0.73;;
1306;SDS011;646;48.696;9.114;2022-09-09T13:55:56;0.90;;;0.70;;
1306;SDS011;646;48.696;9.114;2022-09-09T13:58:22;1.83;;;0.87;;
1306;SDS011;646;48.696;9.114;2022-09-09T14:00:50;1.10;;;0.70;;
1306;SDS011;646;48.696;9.114;2022-09-09T14:03:16;1.23;;;1.13;;
1306;SDS011;646;48.696;9.114;2022-09-09T14:05:42;1.03;;;0.77;;
1306;SDS011;646;48.696;9.114;2022-09-09T14:08:11;1.07;;;0.90;;
1306;SDS011;646;48.696;9.114;2022-09-09T14:10:45;1.70;;;0.90;;
1306;SDS011;646;48.696;9.114;2022-09-09T14:13:10;1.00;;;0.50;;
1306;SDS011;646;48.696;9.114;2022-09-09T14:15:37;0.77;;;0.70;;
1306;SDS011;646;48.696;9.114;2022-09-09T14:18:02;1.73;;;0.73;;
1306;SDS011;646;48.696;9.114;2022-09-09T14:20:28;0.60;;;0.60;;
1306;SDS011;646;48.696;9.114;2022-09-09T14:22:54;0.90;;;0.73;;
1306;SDS011;646;48.696;9.114;2022-09-09T14:25:19;1.17;;;1.07;;
1306;SDS011;646;48.696;9.114;2022-09-09T14:27:45;0.60;;;0.60;;
1306;SDS011;646;48.696;9.114;2022-09-09T14:30:11;1.27;;;0.97;;
1306;SDS011;646;48.696;9.114;2022-09-09T14:32:37;2.03;;;0.57;;
1306;SDS011;646;48.696;9.114;2022-09-09T14:35:02;0.60;;;0.50;;
1306;SDS011;646;48.696;9.114;2022-09-09T14:37:28;0.80;;;0.40;;
1306;SDS011;646;48.696;9.114;2022-09-09T14:39:56;0.80;;;0.60;;
1306;SDS011;646;48.696;9.114;2022-09-09T14:42:21;0.60;;;0.60;;
1306;SDS011;646;48.696;9.114;2022-09-09T14:44:48;1.37;;;0.60;;
1306;SDS011;646;48.696;9.114;2022-09-09T14:47:13;0.60;;;0.57;;
1306;SDS011;646;48.696;9.114;2022-09-09T14:49:39;1.00;;;0.90;;
1306;SDS011;646;48.696;9.114;2022-09-09T14:52:04;2.03;;;0.77;;
1306;SDS011;646;48.696;9.114;2022-09-09T14:54:31;1.00;;;0.90;;
1306;SDS011;646;48.696;9.114;2022-09-09T14:56:57;1.70;;;0.70;;
1306;SDS011;646;48.696;9.114;2022-09-09T14:59:22;0.97;;;0.73;;
1306;SDS011;646;48.696;9.114;2022-09-09T15:01:48;0.70;;;0.70;;
1306;SDS011;646;48.696;9.114;2022-09-09T15:04:14;1.07;;;0.60;;
1306;SDS011;646;48.696;9.114;2022-09-09T15:06:39;1.80;;;0.90;;
1306;SDS011;646;48.696;9.114;2022-09-09T15:09:07;1.80;;;0.80;;
1306;SDS011;646;48.696;9.114;2022-09-09T15:11:34;1.67;;;1.00;;
1306;SDS011;646;48.696;9.114;2022-09-09T15:14:03;2.00;;;1.00;;
1306;SDS011;646;48.696;9.114;2022-09-09T15:16:29;0.90;;;0.90;;
1306;SDS011;646;48.696;9.114;2022-09-09T15:18:57;1.93;;;1.10;;
1306;SDS011;646;48.696;9.114;2022-09-09T15:21:24;0.90;;;0.87;;
1306;SDS011;646;48.696;9.114;2022-09-09T15:23:52;1.23;;;0.90;;
1306;SDS011;646;48.696;9.114;2022-09-09T15:26:18;1.30;;;1.20;;
1306;SDS011;646;48.696;9.114;2022-09-09T15:28:45;0.80;;;0.80;;
1306;SDS011;646;48.696;9.114;2022-09-09T15:33:48;2.70;;;0.83;;
1306;SDS011;646;48.696;9.114;2022-09-09T15:36:19;0.93;;;0.90;;
1306;SDS011;646;48.696;9.114;2022-09-09T15:38:49;1.67;;;0.93;;
1306;SDS011;646;48.696;9.114;2022-09-09T15:41:16;2.37;;;1.30;;
1306;SDS011;646;48.696;9.114;2022-09-09T15:43:47;1.23;;;0.73;;
1306;SDS011;646;48.696;9.114;2022-09-09T15:48:54;0.80;;;0.70;;
1306;SDS011;646;48.696;9.114;2022-09-09T15:51:21;0.97;;;0.93;;
1306;SDS011;646;48.696;9.114;2022-09-09T15:53:48;1.17;;;1.03;;
1306;SDS011;646;48.696;9.114;2022-09-09T15:56:18;0.73;;;0.73;;
1306;SDS011;646;48.696;9.114;2022-09-09T15:58:44;1.13;;;1.03;;
1306;SDS011;646;48.696;9.114;2022-09-09T16:01:10;2.10;;;1.17;;
1306;SDS011;646;48.696;9.114;2022-09-09T16:03:39;2.20;;;0.87;;
1306;SDS011;646;48.696;9.114;2022-09-09T16:06:07;1.70;;;0.77;;
1306;SDS011;646;48.696;9.114;2022-09-09T16:08:37;2.77;;;0.87;;
1306;SDS011;646;48.696;9.114;2022-09-09T16:11:09;4.77;;;1.67;;
1306;SDS011;646;48.696;9.114;2022-09-09T16:13:40;0.80;;;0.80;;
1306;SDS011;646;48.696;9.114;2022-09-09T16:16:07;2.30;;;1.00;;
1306;SDS011;646;48.696;9.114;2022-09-09T16:18:39;1.13;;;0.90;;
1306;SDS011;646;48.696;9.114;2022-09-09T16:21:06;1.10;;;1.00;;
1306;SDS011;646;48.696;9.114;2022-09-09T16:23:33;1.60;;;0.80;;
1306;SDS011;646;48.696;9.114;2022-09-09T16:26:01;1.13;;;0.90;;
1306;SDS011;646;48.696;9.114;2022-09-09T16:28:27;1.83;;;0.80;;
1306;SDS011;646;48.696;9.114;2022-09-09T16:30:54;1.17;;;0.87;;
1306;SDS011;646;48.696;9.114;2022-09-09T16:33:20;2.10;;;0.80;;
1306;SDS011;646;48.696;9.114;2022-09-09T16:35:45;1.70;;;1.00;;
1306;SDS011;646;48.696;9.114;2022-09-09T16:38:11;1.27;;;1.17;;
1306;SDS011;646;48.696;9.114;2022-09-09T16:40:37;1.07;;;1.07;;
1306;SDS011;646;48.696;9.114;2022-09-09T16:43:03;2.37;;;1.40;;
1306;SDS011;646;48.696;9.114;2022-09-09T16:45:30;2.57;;;1.20;;
1306;SDS011;646;48.696;9.114;2022-09-09T16:47:57;2.10;;;1.20;;
1306;SDS011;646;48.696;9.114;2022-09-09T16:50:22;0.93;;;0.93;;
1306;SDS011;646;48.696;9.114;2022-09-09T16:52:48;0.80;;;0.80;;
1306;SDS011;646;48.696;9.114;2022-09-09T16:55:13;0.70;;;0.70;;
1306;SDS011;646;48.696;9.114;2022-09-09T16:57:39;1.70;;;0.93;;
1306;SDS011;646;48.696;9.114;2022-09-09T17:00:06;1.23;;;0.80;;
1306;SDS011;646;48.696;9.114;2022-09-09T17:02:34;0.60;;;0.60;;
1306;SDS011;646;48.696;9.114;2022-09-09T17:05:00;0.70;;;0.70;;
1306;SDS011;646;48.696;9.114;2022-09-09T17:07:25;0.80;;;0.60;;
1306;SDS011;646;48.696;9.114;2022-09-09T17:09:51;2.30;;;0.80;;
1306;SDS011;646;48.696;9.114;2022-09-09T17:12:18;0.80;;;0.60;;
1306;SDS011;646;48.696;9.114;2022-09-09T17:14:43;0.50;;;0.50;;
1306;SDS011;646;48.696;9.114;2022-09-09T17:17:10;0.73;;;0.60;;
1306;SDS011;646;48.696;9.114;2022-09-09T17:19:36;0.50;;;0.50;;
1306;SDS011;646;48.696;9.114;2022-09-09T17:22:01;0.63;;;0.63;;
1306;SDS011;646;48.696;9.114;2022-09-09T17:24:27;1.40;;;0.70;;
1306;SDS011;646;48.696;9.114;2022-09-09T17:26:53;1.13;;;0.70;;
1306;SDS011;646;48.696;9.114;2022-09-09T17:29:19;0.90;;;0.90;;
1306;SDS011;646;48.696;9.114;2022-09-09T17:31:45;0.90;;;0.90;;
1306;SDS011;646;48.696;9.114;2022-09-09T17:34:10;1.03;;;0.70;;
1306;SDS011;646;48.696;9.114;2022-09-09T17:36:36;0.80;;;0.80;;
1306;SDS011;646;48.696;9.114;2022-09-09T17:39:03;0.97;;;0.60;;
1306;SDS011;646;48.696;9.114;2022-09-09T17:41:31;0.80;;;0.80;;
1306;SDS011;646;48.696;9.114;2022-09-09T17:44:02;0.70;;;0.70;;
1306;SDS011;646;48.696;9.114;2022-09-09T17:46:34;1.23;;;0.83;;
1306;SDS011;646;48.696;9.114;2022-09-09T17:49:06;0.77;;;0.77;;
1306;SDS011;646;48.696;9.114;2022-09-09T17:51:34;0.60;;;0.60;;
1306;SDS011;646;48.696;9.114;2022-09-09T17:54:02;0.80;;;0.80;;
1306;SDS011;646;48.696;9.114;2022-09-09T17:56:31;0.90;;;0.77;;
1306;SDS011;646;48.696;9.114;2022-09-09T17:58:57;0.77;;;0.77;;